Kemsing, United Kingdom
Current Conditions -  °F | °C
As of 3:50 PM on Tuesday 21 Oct 2014 (Local Time) from EGKB Reporting Station
Rain Showers Rain Showers  
Wind Chill: 11°   Ceiling: Unl
Heat Index: 11°   Visibility: 6mi
Dew Point:   Wind: 25mph
Humidity: 54%   Direction: 290°WNW
Pressure: 29.8"   Gusts: 40mph
Location:  51.31°N, 0.23°E
Report Text: EGKB 211450Z 29022G35KT 250V330 9999 VCSH SCT025 11/02 Q1009
Loading
Personal Weather Stations






























Interactive Weather Map
Tropical Storm Tracking
New forecast layout! Learn more

10-Day Weather Forecast

Advertisements
Track Severe Weather on mobile